Welcome to Northern Hawkes Bay. New Zealand.
PWS Header
      nz Flag



Hit Counter


W3C Valid W3C Valid logo


    Wairoa

Select any of the Stations below to visit their websites.










Historic Data from Weather Underground
Select the location of interest below. Wairoa is the default. Please have patience, this Data is slow to load in.
Northern Hawkes Bay Historical Data
Daily Summary for March 2, 2017 Units:  Metric    English   Both
« Previous Day
Next Day »
Daily Weekly Monthly Yearly Custom
  High: Low: Average:
Temperature: 24.4 °C 13.7 °C 18.6 °C
Dew Point: 18.1 °C 13.6 °C 15.3 °C
Humidity: 99% 63% 82%
Wind Speed: 15.8km/h 0.0km/h 4.3km/h
Wind Gust: 23.3km/h - -
Wind- - WSW
Pressure: 1026.3 hPa 1023.2 hPa -
Precipitation: 0.0 mm    
Historical Graphs
 
 
Tabular Data for March 2, 2017
Time Temperature Dew Point Pressure Wind Wind Speed Wind Gust Humidity Rainfall Rate (Hourly) solar
00:03 15.5 °C 14.4 °C 1026.3 hPa Calm     93% 0.0 mm 0 W/m2
00:08 15.5 °C 14.4 °C 1026.3 hPa Calm     93% 0.0 mm 0 W/m2
00:13 15.5 °C 14.4 °C 1026.0 hPa Calm     93% 0.0 mm 0 W/m2
00:18 15.5 °C 14.6 °C 1026.0 hPa Calm     94% 0.0 mm 0 W/m2
00:23 15.5 °C 14.6 °C 1026.3 hPa Calm     94% 0.0 mm 0 W/m2
00:28 15.5 °C 14.6 °C 1026.0 hPa Calm     94% 0.0 mm 0 W/m2
00:33 15.5 °C 14.6 °C 1026.0 hPa Calm     94% 0.0 mm 0 W/m2
00:38 15.5 °C 14.6 °C 1026.0 hPa Calm     94% 0.0 mm 0 W/m2
00:43 15.5 °C 14.6 °C 1026.0 hPa NW 2.6 km/h 7.2 km/h 94% 0.0 mm 0 W/m2
00:48 15.5 °C 14.6 °C 1026.0 hPa NW 2.6 km/h 7.2 km/h 94% 0.0 mm 0 W/m2
00:53 15.4 °C 14.4 °C 1026.0 hPa NNW 2.6 km/h 6.1 km/h 94% 0.0 mm 0 W/m2
00:58 15.3 °C 14.3 °C 1026.0 hPa Calm   5.0 km/h 94% 0.0 mm 0 W/m2
01:03 15.3 °C 14.3 °C 1026.0 hPa Calm   5.0 km/h 94% 0.0 mm 0 W/m2
01:08 15.3 °C 14.3 °C 1026.0 hPa NNW 2.6 km/h 7.2 km/h 94% 0.0 mm 0 W/m2
01:13 15.3 °C 14.3 °C 1026.0 hPa NNW 2.6 km/h 7.2 km/h 94% 0.0 mm 0 W/m2
01:18 15.2 °C 14.2 °C 1026.0 hPa NW 2.6 km/h 6.1 km/h 94% 0.0 mm 0 W/m2
01:23 15.3 °C 14.3 °C 1026.0 hPa NNW 3.5 km/h 7.2 km/h 94% 0.0 mm 0 W/m2
01:28 15.3 °C 14.3 °C 1026.0 hPa NNW 3.5 km/h 7.2 km/h 94% 0.0 mm 0 W/m2
01:33 15.3 °C 14.3 °C 1026.0 hPa NW 3.5 km/h 7.2 km/h 94% 0.0 mm 0 W/m2
01:38 15.3 °C 14.3 °C 1026.0 hPa NNW 5.0 km/h 8.7 km/h 94% 0.0 mm 0 W/m2
01:43 15.3 °C 14.3 °C 1026.0 hPa NNW 3.5 km/h 8.7 km/h 94% 0.0 mm 0 W/m2
01:48 15.3 °C 14.3 °C 1026.0 hPa NNW 2.6 km/h 7.2 km/h 94% 0.0 mm 0 W/m2
01:53 15.2 °C 14.2 °C 1026.0 hPa NNW 2.6 km/h 6.1 km/h 94% 0.0 mm 0 W/m2
01:58 15.2 °C 14.2 °C 1025.6 hPa NW 1.1 km/h 5.0 km/h 94% 0.0 mm 0 W/m2
02:03 15.0 °C 14.1 °C 1025.6 hPa NW 3.5 km/h 5.0 km/h 94% 0.0 mm 0 W/m2
02:08 14.9 °C 14.1 °C 1025.6 hPa NW 3.5 km/h 6.1 km/h 95% 0.0 mm 0 W/m2
02:13 14.7 °C 13.9 °C 1025.6 hPa NW 1.1 km/h 6.1 km/h 95% 0.0 mm 0 W/m2
02:18 14.7 °C 13.9 °C 1025.6 hPa NNW 2.6 km/h 5.0 km/h 95% 0.0 mm 0 W/m2
02:23 14.7 °C 14.1 °C 1025.3 hPa NW 2.6 km/h 5.0 km/h 96% 0.0 mm 0 W/m2
02:28 14.6 °C 14.0 °C 1025.3 hPa NW 2.6 km/h 5.0 km/h 96% 0.0 mm 0 W/m2
02:33 14.6 °C 14.0 °C 1025.3 hPa NNW 3.5 km/h 5.0 km/h 96% 0.0 mm 0 W/m2
02:38 14.6 °C 14.0 °C 1025.3 hPa NNW 2.6 km/h 5.0 km/h 96% 0.0 mm 0 W/m2
02:41 14.6 °C 14.0 °C 1025.3 hPa NNW 3.5 km/h 6.1 km/h 96% 0.0 mm 0 W/m2
02:59 14.6 °C 14.1 °C 1025.3 hPa NW 3.5 km/h 7.2 km/h 97% 0.0 mm 0 W/m2
03:04 14.6 °C 14.1 °C 1024.9 hPa NW 1.1 km/h 7.2 km/h 97% 0.0 mm 0 W/m2
03:10 14.6 °C 14.1 °C 1025.3 hPa Calm   5.0 km/h 97% 0.0 mm 0 W/m2
03:14 14.5 °C 14.1 °C 1025.3 hPa WNW 2.6 km/h 5.0 km/h 97% 0.0 mm 0 W/m2
03:20 14.5 °C 14.1 °C 1025.3 hPa WNW 3.5 km/h 6.1 km/h 97% 0.0 mm 0 W/m2
03:24 14.4 °C 13.9 °C 1025.3 hPa NW 3.5 km/h 6.1 km/h 97% 0.0 mm 0 W/m2
03:30 14.4 °C 13.9 °C 1025.3 hPa NW 3.5 km/h 7.2 km/h 97% 0.0 mm 0 W/m2
03:34 14.4 °C 13.9 °C 1025.3 hPa Calm   7.2 km/h 97% 0.0 mm 0 W/m2
03:39 14.3 °C 13.8 °C 1024.9 hPa Calm   5.0 km/h 97% 0.0 mm 0 W/m2
03:45 14.3 °C 13.8 °C 1025.3 hPa NNW 2.6 km/h 5.0 km/h 97% 0.0 mm 0 W/m2
03:49 14.3 °C 13.8 °C 1024.9 hPa NNW 2.6 km/h 6.1 km/h 97% 0.0 mm 0 W/m2
03:54 14.2 °C 13.9 °C 1024.9 hPa NNW 2.6 km/h 6.1 km/h 98% 0.0 mm 0 W/m2
03:59 14.2 °C 13.9 °C 1024.9 hPa NNW 1.1 km/h 5.0 km/h 98% 0.0 mm 0 W/m2
04:04 14.2 °C 13.9 °C 1024.9 hPa NNW 1.1 km/h 5.0 km/h 98% 0.0 mm 0 W/m2
04:09 14.2 °C 13.9 °C 1024.9 hPa Calm   6.1 km/h 98% 0.0 mm 0 W/m2
04:14 14.2 °C 13.9 °C 1024.9 hPa Calm   6.1 km/h 98% 0.0 mm 0 W/m2
04:19 14.1 °C 13.8 °C 1024.9 hPa Calm   2.6 km/h 98% 0.0 mm 0 W/m2
04:24 14.1 °C 13.8 °C 1024.9 hPa Calm     98% 0.0 mm 0 W/m2
04:29 14.1 °C 13.8 °C 1024.6 hPa Calm     98% 0.0 mm 0 W/m2
04:34 14.0 °C 13.7 °C 1024.9 hPa NNW 5.0 km/h 6.1 km/h 98% 0.0 mm 0 W/m2
04:39 14.0 °C 13.7 °C 1024.6 hPa Calm   6.1 km/h 98% 0.0 mm 0 W/m2
04:44 14.0 °C 13.7 °C 1024.6 hPa North 2.6 km/h 6.1 km/h 98% 0.0 mm 0 W/m2
04:50 14.0 °C 13.7 °C 1024.6 hPa Calm   5.0 km/h 98% 0.0 mm 0 W/m2
04:54 14.0 °C 13.7 °C 1024.6 hPa Calm   5.0 km/h 98% 0.0 mm 0 W/m2
04:59 14.0 °C 13.8 °C 1024.6 hPa Calm   3.5 km/h 99% 0.0 mm 0 W/m2
05:04 13.9 °C 13.8 °C 1024.3 hPa Calm   3.5 km/h 99% 0.0 mm 0 W/m2
05:09 13.9 °C 13.8 °C 1024.3 hPa Calm     99% 0.0 mm 0 W/m2
05:14 13.9 °C 13.8 °C 1024.6 hPa NNW 5.0 km/h 6.1 km/h 99% 0.0 mm 0 W/m2
05:19 14.0 °C 13.8 °C 1024.3 hPa NNW 5.0 km/h 7.2 km/h 99% 0.0 mm 0 W/m2
05:24 14.0 °C 13.8 °C 1024.3 hPa NNW 2.6 km/h 7.2 km/h 99% 0.0 mm 0 W/m2
05:29 14.0 °C 13.8 °C 1024.3 hPa NNW 2.6 km/h 7.2 km/h 99% 0.0 mm 0 W/m2
05:34 14.0 °C 13.8 °C 1024.3 hPa NW 2.6 km/h 6.1 km/h 99% 0.0 mm 0 W/m2
05:39 14.0 °C 13.8 °C 1024.3 hPa NW 3.5 km/h 7.2 km/h 99% 0.0 mm 0 W/m2
05:44 14.1 °C 13.9 °C 1024.6 hPa NNW 5.0 km/h 8.7 km/h 99% 0.0 mm 0 W/m2
05:49 14.1 °C 13.9 °C 1024.3 hPa NNW 5.0 km/h 8.7 km/h 99% 0.0 mm 0 W/m2
05:54 14.1 °C 13.9 °C 1024.3 hPa NNW 3.5 km/h 8.7 km/h 99% 0.0 mm 0 W/m2
05:59 14.1 °C 13.9 °C 1024.3 hPa North 2.6 km/h 8.7 km/h 99% 0.0 mm 0 W/m2
06:04 14.0 °C 13.8 °C 1024.3 hPa North 1.1 km/h 6.1 km/h 99% 0.0 mm 0 W/m2
06:09 14.0 °C 13.8 °C 1024.3 hPa North 2.6 km/h 5.0 km/h 99% 0.0 mm 0 W/m2
06:14 14.0 °C 13.8 °C 1024.3 hPa North 3.5 km/h 6.1 km/h 99% 0.0 mm 0 W/m2
06:19 13.9 °C 13.8 °C 1024.3 hPa North 3.5 km/h 6.1 km/h 99% 0.0 mm 0 W/m2
06:24 13.9 °C 13.8 °C 1024.3 hPa North 2.6 km/h 6.1 km/h 99% 0.0 mm 0 W/m2
06:29 13.8 °C 13.7 °C 1024.3 hPa North 2.6 km/h 7.2 km/h 99% 0.0 mm 0 W/m2
06:34 13.8 °C 13.7 °C 1024.3 hPa NNW 1.1 km/h 7.2 km/h 99% 0.0 mm 0 W/m2
06:39 13.8 °C 13.7 °C 1024.3 hPa North 2.6 km/h 6.1 km/h 99% 0.0 mm 0 W/m2
06:44 13.7 °C 13.6 °C 1024.3 hPa North 3.5 km/h 7.2 km/h 99% 0.0 mm 0 W/m2
06:50 13.7 °C 13.6 °C 1024.3 hPa North 2.6 km/h 7.2 km/h 99% 0.0 mm 1 W/m2
06:55 13.7 °C 13.6 °C 1024.3 hPa NNW 2.6 km/h 6.1 km/h 99% 0.0 mm 4 W/m2
07:00 13.7 °C 13.6 °C 1024.6 hPa NNW 3.5 km/h 6.1 km/h 99% 0.0 mm 7 W/m2
07:05 13.7 °C 13.6 °C 1024.6 hPa Calm   6.1 km/h 99% 0.0 mm 11 W/m2
07:10 13.7 °C 13.6 °C 1024.3 hPa North 2.6 km/h 6.1 km/h 99% 0.0 mm 14 W/m2
07:15 13.8 °C 13.7 °C 1024.6 hPa North 1.1 km/h 6.1 km/h 99% 0.0 mm 18 W/m2
07:20 13.9 °C 13.8 °C 1024.6 hPa NNW 2.6 km/h 6.1 km/h 99% 0.0 mm 47 W/m2
07:23 14.1 °C 13.9 °C 1024.6 hPa NNW 3.5 km/h 8.7 km/h 99% 0.0 mm 56 W/m2
07:28 14.5 °C 14.3 °C 1024.9 hPa NNW 1.1 km/h 8.7 km/h 99% 0.0 mm 72 W/m2
07:33 15.0 °C 14.8 °C 1024.9 hPa North 3.5 km/h 6.1 km/h 99% 0.0 mm 90 W/m2
07:38 15.3 °C 15.2 °C 1024.6 hPa NNW 2.6 km/h 6.1 km/h 99% 0.0 mm 106 W/m2
07:43 15.5 °C 15.3 °C 1024.9 hPa NNW 2.6 km/h 7.2 km/h 99% 0.0 mm 120 W/m2
07:48 15.9 °C 15.4 °C 1024.9 hPa NNW 2.6 km/h 7.2 km/h 97% 0.0 mm 135 W/m2
07:53 16.3 °C 15.5 °C 1024.9 hPa NNW 2.6 km/h 7.2 km/h 95% 0.0 mm 148 W/m2
07:58 16.3 °C 15.0 °C 1024.9 hPa NNW 2.6 km/h 8.7 km/h 92% 0.0 mm 157 W/m2
08:03 16.6 °C 14.8 °C 1024.9 hPa NNW 2.6 km/h 8.7 km/h 89% 0.0 mm 167 W/m2
08:08 17.0 °C 14.8 °C 1024.9 hPa North 2.6 km/h 6.1 km/h 87% 0.0 mm 179 W/m2
08:13 17.2 °C 14.7 °C 1024.9 hPa North 2.6 km/h 6.1 km/h 85% 0.0 mm 191 W/m2
08:18 17.7 °C 15.2 °C 1024.9 hPa North 2.6 km/h 6.1 km/h 85% 0.0 mm 201 W/m2
08:23 18.0 °C 15.3 °C 1024.9 hPa NNW 2.6 km/h 7.2 km/h 84% 0.0 mm 207 W/m2
08:28 18.0 °C 14.9 °C 1024.9 hPa NNW 2.6 km/h 9.7 km/h 82% 0.0 mm 211 W/m2
08:33 18.2 °C 15.1 °C 1024.9 hPa NNW 6.1 km/h 11.1 km/h 82% 0.0 mm 215 W/m2
08:38 18.0 °C 14.9 °C 1024.9 hPa NNW 6.1 km/h 11.1 km/h 82% 0.0 mm 222 W/m2
08:43 18.3 °C 15.6 °C 1024.9 hPa NNW 2.6 km/h 9.7 km/h 84% 0.0 mm 230 W/m2
08:48 18.6 °C 15.5 °C 1024.9 hPa NNW 2.6 km/h 9.7 km/h 82% 0.0 mm 239 W/m2
08:53 18.8 °C 15.5 °C 1025.3 hPa NNW 3.5 km/h 9.7 km/h 81% 0.0 mm 249 W/m2
08:58 19.1 °C 15.8 °C 1024.9 hPa NW 3.5 km/h 7.2 km/h 81% 0.0 mm 261 W/m2
09:03 19.8 °C 16.3 °C 1024.9 hPa NNW 6.1 km/h 7.2 km/h 80% 0.0 mm 271 W/m2
09:08 19.9 °C 15.9 °C 1024.9 hPa North 3.5 km/h 7.2 km/h 78% 0.0 mm 280 W/m2
09:13 20.1 °C 15.9 °C 1024.9 hPa NNW 2.6 km/h 7.2 km/h 77% 0.0 mm 289 W/m2
09:18 20.5 °C 16.6 °C 1025.3 hPa NW 1.1 km/h 6.1 km/h 78% 0.0 mm 301 W/m2
09:23 21.2 °C 16.6 °C 1025.3 hPa NW 2.6 km/h 6.1 km/h 75% 0.0 mm 321 W/m2
09:28 21.5 °C 16.4 °C 1025.3 hPa Calm   6.1 km/h 73% 0.0 mm 299 W/m2
09:33 21.4 °C 16.4 °C 1025.3 hPa Calm   6.1 km/h 73% 0.0 mm 202 W/m2
09:38 21.6 °C 16.6 °C 1025.3 hPa Calm   3.5 km/h 73% 0.0 mm 402 W/m2
09:43 23.0 °C 17.7 °C 1025.3 hPa Calm   1.1 km/h 72% 0.0 mm 231 W/m2
09:48 23.8 °C 17.6 °C 1025.3 hPa SW 1.1 km/h 6.1 km/h 68% 0.0 mm 402 W/m2
09:53 24.4 °C 17.9 °C 1025.3 hPa SSE 3.5 km/h 6.1 km/h 67% 0.0 mm 430 W/m2
09:58 24.1 °C 17.4 °C 1025.3 hPa SSE 6.1 km/h 7.2 km/h 66% 0.0 mm 521 W/m2
10:03 23.5 °C 17.5 °C 1025.3 hPa SSW 5.0 km/h 11.1 km/h 69% 0.0 mm 239 W/m2
10:08 23.2 °C 17.7 °C 1025.3 hPa SSW 7.2 km/h 11.1 km/h 71% 0.0 mm 422 W/m2
10:13 23.0 °C 18.1 °C 1025.3 hPa South 7.2 km/h 12.2 km/h 74% 0.0 mm 396 W/m2
10:18 22.6 °C 17.6 °C 1025.3 hPa SSW 8.7 km/h 12.2 km/h 73% 0.0 mm 284 W/m2
10:23 21.8 °C 17.6 °C 1025.6 hPa SW 7.2 km/h 12.2 km/h 77% 0.0 mm 271 W/m2
10:28 21.4 °C 17.2 °C 1025.3 hPa SSW 6.1 km/h 12.2 km/h 77% 0.0 mm 275 W/m2
10:33 21.4 °C 17.2 °C 1025.3 hPa South 7.2 km/h 12.2 km/h 77% 0.0 mm 276 W/m2
10:38 21.4 °C 16.8 °C 1025.6 hPa South 6.1 km/h 12.2 km/h 75% 0.0 mm 260 W/m2
10:44 21.2 °C 16.2 °C 1025.3 hPa South 8.7 km/h 13.4 km/h 73% 0.0 mm 268 W/m2
10:49 21.0 °C 16.2 °C 1025.3 hPa South 13.4 km/h 15.8 km/h 74% 0.0 mm 291 W/m2
10:54 21.1 °C 16.5 °C 1025.3 hPa South 6.1 km/h 15.8 km/h 75% 0.0 mm 261 W/m2
11:13 21.0 °C 16.0 °C 1025.3 hPa South 3.5 km/h 15.8 km/h 73% 0.0 mm 274 W/m2
11:18 21.1 °C 15.9 °C 1025.3 hPa South 8.7 km/h 14.8 km/h 72% 0.0 mm 283 W/m2
11:23 21.0 °C 15.8 °C 1024.9 hPa South 9.7 km/h 18.3 km/h 72% 0.0 mm 286 W/m2
11:28 21.1 °C 15.9 °C 1025.3 hPa South 7.2 km/h 18.3 km/h 72% 0.0 mm 305 W/m2
11:33 21.2 °C 16.2 °C 1025.3 hPa South 3.5 km/h 15.8 km/h 73% 0.0 mm 322 W/m2
11:38 21.5 °C 16.3 °C 1024.9 hPa South 7.2 km/h 15.8 km/h 72% 0.0 mm 319 W/m2
11:43 21.2 °C 15.7 °C 1024.9 hPa SSE 6.1 km/h 17.2 km/h 71% 0.0 mm 352 W/m2
11:48 21.2 °C 15.9 °C 1024.9 hPa South 9.7 km/h 17.2 km/h 72% 0.0 mm 371 W/m2
11:53 21.1 °C 15.9 °C 1024.9 hPa South 8.7 km/h 17.2 km/h 72% 0.0 mm 363 W/m2
11:58 21.2 °C 15.9 °C 1024.9 hPa South 8.7 km/h 14.8 km/h 72% 0.0 mm 358 W/m2
12:03 21.3 °C 16.1 °C 1024.9 hPa South 12.2 km/h 17.2 km/h 72% 0.0 mm 411 W/m2
12:08 21.2 °C 15.9 °C 1024.9 hPa South 9.7 km/h 18.3 km/h 72% 0.0 mm 400 W/m2
12:13 21.1 °C 15.9 °C 1024.6 hPa South 7.2 km/h 18.3 km/h 72% 0.0 mm 368 W/m2
12:18 21.0 °C 15.6 °C 1024.9 hPa South 12.2 km/h 18.3 km/h 71% 0.0 mm 377 W/m2
12:23 21.2 °C 16.2 °C 1024.6 hPa SSE 8.7 km/h 18.3 km/h 73% 0.0 mm 567 W/m2
12:28 21.5 °C 16.3 °C 1024.6 hPa SSE 12.2 km/h 17.2 km/h 72% 0.0 mm 830 W/m2
12:33 21.5 °C 16.1 °C 1024.6 hPa South 11.1 km/h 17.2 km/h 71% 0.0 mm 890 W/m2
12:38 21.9 °C 16.7 °C 1024.6 hPa South 9.7 km/h 17.2 km/h 72% 0.0 mm 884 W/m2
12:43 22.6 °C 16.4 °C 1024.6 hPa SSE 8.7 km/h 17.2 km/h 68% 0.0 mm 419 W/m2
12:48 22.3 °C 15.9 °C 1024.3 hPa SSE 9.7 km/h 17.2 km/h 67% 0.0 mm 1056 W/m2
12:53 22.5 °C 16.1 °C 1024.6 hPa SSE 6.1 km/h 15.8 km/h 67% 0.0 mm 668 W/m2
12:58 22.6 °C 16.7 °C 1024.6 hPa SSE 9.7 km/h 14.8 km/h 69% 0.0 mm 913 W/m2
13:03 22.6 °C 17.1 °C 1024.3 hPa SE 6.1 km/h 14.8 km/h 71% 0.0 mm 1029 W/m2
13:08 22.4 °C 17.1 °C 1024.3 hPa SE 6.1 km/h 15.8 km/h 72% 0.0 mm 975 W/m2
13:13 22.5 °C 17.2 °C 1024.3 hPa SSE 7.2 km/h 15.8 km/h 72% 0.0 mm 979 W/m2
13:18 22.4 °C 16.9 °C 1024.3 hPa SSE 9.7 km/h 17.2 km/h 71% 0.0 mm 963 W/m2
13:23 22.5 °C 17.0 °C 1024.3 hPa SSE 9.7 km/h 21.9 km/h 71% 0.0 mm 924 W/m2
13:28 22.7 °C 17.2 °C 1024.3 hPa South 5.0 km/h 21.9 km/h 71% 0.0 mm 978 W/m2
13:33 22.8 °C 16.8 °C 1024.3 hPa South 8.7 km/h 17.2 km/h 69% 0.0 mm 934 W/m2
13:38 22.5 °C 16.8 °C 1024.3 hPa South 7.2 km/h 17.2 km/h 70% 0.0 mm 497 W/m2
13:43 22.0 °C 16.5 °C 1024.3 hPa SSE 9.7 km/h 19.5 km/h 71% 0.0 mm 944 W/m2
13:48 22.0 °C 16.5 °C 1024.3 hPa SSE 8.7 km/h 19.5 km/h 71% 0.0 mm 827 W/m2
13:53 22.1 °C 16.6 °C 1024.3 hPa SSE 8.7 km/h 18.3 km/h 71% 0.0 mm 813 W/m2
13:58 22.2 °C 16.7 °C 1023.9 hPa South 12.2 km/h 18.3 km/h 71% 0.0 mm 916 W/m2
14:03 21.7 °C 16.4 °C 1024.3 hPa South 9.7 km/h 19.5 km/h 72% 0.0 mm 800 W/m2
14:08 21.6 °C 16.3 °C 1023.9 hPa South 9.7 km/h 19.5 km/h 72% 0.0 mm 896 W/m2
14:13 21.8 °C 16.8 °C 1023.9 hPa SSE 12.2 km/h 18.3 km/h 73% 0.0 mm 782 W/m2
14:18 21.9 °C 16.7 °C 1024.3 hPa SSE 8.7 km/h 18.3 km/h 72% 0.0 mm 864 W/m2
14:23 21.7 °C 16.7 °C 1023.9 hPa SSE 5.0 km/h 20.9 km/h 73% 0.0 mm 719 W/m2
14:28 21.6 °C 16.3 °C 1024.3 hPa SSE 8.7 km/h 23.3 km/h 72% 0.0 mm 865 W/m2
14:33 22.2 °C 16.7 °C 1024.3 hPa SSE 6.1 km/h 23.3 km/h 71% 0.0 mm 903 W/m2
14:38 22.8 °C 16.6 °C 1023.9 hPa SE 8.7 km/h 15.8 km/h 68% 0.0 mm 536 W/m2
14:43 22.7 °C 16.3 °C 1023.9 hPa SSE 12.2 km/h 21.9 km/h 67% 0.0 mm 612 W/m2
14:48 21.9 °C 15.9 °C 1023.9 hPa SSE 5.0 km/h 21.9 km/h 69% 0.0 mm 927 W/m2
14:53 21.8 °C 16.3 °C 1023.9 hPa SSE 15.8 km/h 21.9 km/h 71% 0.0 mm 736 W/m2
14:58 21.9 °C 15.9 °C 1023.9 hPa South 3.5 km/h 18.3 km/h 69% 0.0 mm 421 W/m2
15:03 21.9 °C 16.2 °C 1023.9 hPa South 8.7 km/h 18.3 km/h 70% 0.0 mm 778 W/m2
15:08 22.9 °C 16.2 °C 1023.9 hPa SSE 8.7 km/h 14.8 km/h 66% 0.0 mm 759 W/m2
15:13 22.6 °C 15.7 °C 1023.6 hPa SSE 8.7 km/h 18.3 km/h 65% 0.0 mm 501 W/m2
15:18 23.3 °C 16.4 °C 1023.6 hPa SSE 8.7 km/h 18.3 km/h 65% 0.0 mm 790 W/m2
15:23 23.0 °C 16.1 °C 1023.9 hPa SSE 5.0 km/h 18.3 km/h 65% 0.0 mm 588 W/m2
15:28 22.8 °C 15.4 °C 1023.9 hPa SSE 7.2 km/h 18.3 km/h 63% 0.0 mm 449 W/m2
15:33 22.2 °C 15.3 °C 1023.6 hPa SSE 7.2 km/h 15.8 km/h 65% 0.0 mm 346 W/m2
15:38 22.3 °C 15.7 °C 1023.6 hPa SSE 6.1 km/h 18.3 km/h 66% 0.0 mm 327 W/m2
15:43 22.8 °C 15.7 °C 1023.6 hPa SSE 8.7 km/h 18.3 km/h 64% 0.0 mm 432 W/m2
15:48 22.8 °C 15.9 °C 1023.6 hPa SE 7.2 km/h 14.8 km/h 65% 0.0 mm 344 W/m2
15:53 22.7 °C 15.6 °C 1023.6 hPa SSE 6.1 km/h 14.8 km/h 64% 0.0 mm 285 W/m2
15:58 22.4 °C 15.5 °C 1023.6 hPa SSE 12.2 km/h 15.8 km/h 65% 0.0 mm 356 W/m2
16:03 22.0 °C 15.4 °C 1023.2 hPa SSE 6.1 km/h 19.5 km/h 66% 0.0 mm 512 W/m2
16:08 22.2 °C 15.3 °C 1023.2 hPa SSE 6.1 km/h 19.5 km/h 65% 0.0 mm 447 W/m2
16:13 22.0 °C 15.4 °C 1023.2 hPa SSE 2.6 km/h 17.2 km/h 66% 0.0 mm 272 W/m2
16:18 21.7 °C 15.6 °C 1023.2 hPa SSE 7.2 km/h 15.8 km/h 68% 0.0 mm 290 W/m2
16:23 21.7 °C 16.2 °C 1023.2 hPa SSE 3.5 km/h 15.8 km/h 71% 0.0 mm 283 W/m2
16:28 22.3 °C 16.1 °C 1023.2 hPa SSE 6.1 km/h 14.8 km/h 68% 0.0 mm 589 W/m2
16:33 22.2 °C 15.6 °C 1023.2 hPa SSE 9.7 km/h 18.3 km/h 66% 0.0 mm 444 W/m2
16:38 22.6 °C 16.4 °C 1023.2 hPa SSE 12.2 km/h 18.3 km/h 68% 0.0 mm 208 W/m2
16:43 22.2 °C 15.3 °C 1023.6 hPa South 8.7 km/h 17.2 km/h 65% 0.0 mm 442 W/m2
16:48 22.5 °C 15.8 °C 1023.6 hPa SSE 11.1 km/h 17.2 km/h 66% 0.0 mm 317 W/m2
16:53 21.8 °C 15.4 °C 1023.2 hPa SSE 6.1 km/h 17.2 km/h 67% 0.0 mm 212 W/m2
16:58 21.8 °C 15.7 °C 1023.2 hPa SSE 5.0 km/h 17.2 km/h 68% 0.0 mm 281 W/m2
17:03 22.3 °C 16.1 °C 1023.6 hPa SE 13.4 km/h 19.5 km/h 68% 0.0 mm 449 W/m2
17:08 22.7 °C 16.1 °C 1023.2 hPa SE 5.0 km/h 19.5 km/h 66% 0.0 mm 400 W/m2
17:13 22.8 °C 15.9 °C 1023.2 hPa SSE 8.7 km/h 19.5 km/h 65% 0.0 mm 397 W/m2
17:18 23.2 °C 16.3 °C 1023.6 hPa SSE 6.1 km/h 15.8 km/h 65% 0.0 mm 403 W/m2
17:23 22.5 °C 15.4 °C 1023.2 hPa SSE 9.7 km/h 19.5 km/h 64% 0.0 mm 173 W/m2
17:28 21.7 °C 15.6 °C 1023.2 hPa South 7.2 km/h 19.5 km/h 68% 0.0 mm 362 W/m2
17:33 21.9 °C 15.7 °C 1023.2 hPa South 5.0 km/h 15.8 km/h 68% 0.0 mm 323 W/m2
17:38 22.5 °C 15.4 °C 1023.2 hPa SSE 8.7 km/h 15.8 km/h 64% 0.0 mm 291 W/m2
17:43 22.9 °C 15.7 °C 1023.2 hPa SSE 11.1 km/h 15.8 km/h 64% 0.0 mm 297 W/m2
17:48 22.0 °C 15.1 °C 1023.2 hPa SSE 5.0 km/h 19.5 km/h 65% 0.0 mm 232 W/m2
17:53 22.4 °C 15.3 °C 1023.2 hPa SSE 2.6 km/h 19.5 km/h 64% 0.0 mm 236 W/m2
17:58 22.6 °C 15.2 °C 1023.2 hPa SSE 2.6 km/h 13.4 km/h 63% 0.0 mm 108 W/m2
18:03 21.1 °C 15.0 °C 1023.2 hPa South 8.7 km/h 15.8 km/h 68% 0.0 mm 147 W/m2
18:08 21.3 °C 15.8 °C 1023.2 hPa South 9.7 km/h 15.8 km/h 71% 0.0 mm 252 W/m2
18:13 21.8 °C 15.7 °C 1023.2 hPa South 6.1 km/h 14.8 km/h 68% 0.0 mm 213 W/m2
18:18 21.5 °C 15.3 °C 1023.2 hPa South 7.2 km/h 15.8 km/h 68% 0.0 mm 98 W/m2
18:23 21.2 °C 15.7 °C 1023.2 hPa South 9.7 km/h 15.8 km/h 71% 0.0 mm 120 W/m2
18:28 20.7 °C 15.7 °C 1023.2 hPa South 8.7 km/h 14.8 km/h 73% 0.0 mm 80 W/m2
18:33 20.2 °C 15.4 °C 1023.2 hPa South 8.7 km/h 14.8 km/h 74% 0.0 mm 58 W/m2
18:38 19.8 °C 15.4 °C 1023.2 hPa SSE 7.2 km/h 15.8 km/h 76% 0.0 mm 44 W/m2
18:43 19.6 °C 15.7 °C 1023.2 hPa SSE 7.2 km/h 15.8 km/h 78% 0.0 mm 50 W/m2
18:48 19.6 °C 15.9 °C 1023.2 hPa SSE 7.2 km/h 12.2 km/h 79% 0.0 mm 52 W/m2
18:53 19.5 °C 15.6 °C 1023.2 hPa SSE 5.0 km/h 11.1 km/h 78% 0.0 mm 39 W/m2
18:58 19.4 °C 15.5 °C 1023.6 hPa South 5.0 km/h 13.4 km/h 78% 0.0 mm 45 W/m2
19:03 19.4 °C 15.3 °C 1023.6 hPa South 6.1 km/h 13.4 km/h 77% 0.0 mm 30 W/m2
19:08 19.3 °C 15.4 °C 1023.2 hPa South 7.2 km/h 13.4 km/h 78% 0.0 mm 22 W/m2
19:13 19.3 °C 15.4 °C 1023.6 hPa South 8.7 km/h 12.2 km/h 78% 0.0 mm 16 W/m2
19:18 19.2 °C 15.5 °C 1023.2 hPa Calm   12.2 km/h 79% 0.0 mm 14 W/m2
19:23 19.2 °C 15.7 °C 1023.2 hPa SSE 2.6 km/h 11.1 km/h 80% 0.0 mm 13 W/m2
19:28 19.2 °C 15.5 °C 1023.2 hPa SSE 3.5 km/h 11.1 km/h 79% 0.0 mm 6 W/m2
19:33 19.2 °C 15.5 °C 1023.6 hPa SSE 3.5 km/h 11.1 km/h 79% 0.0 mm 4 W/m2
19:38 19.2 °C 15.7 °C 1023.6 hPa SSE 5.0 km/h 8.7 km/h 80% 0.0 mm 2 W/m2
19:43 19.1 °C 15.4 °C 1023.6 hPa SSE 2.6 km/h 8.7 km/h 79% 0.0 mm 1 W/m2
19:48 19.1 °C 15.4 °C 1023.6 hPa SSE 5.0 km/h 7.2 km/h 79% 0.0 mm 0 W/m2
19:53 19.1 °C 15.2 °C 1023.6 hPa SE 3.5 km/h 7.2 km/h 78% 0.0 mm 0 W/m2
19:58 19.1 °C 15.2 °C 1023.6 hPa SE 1.1 km/h 9.7 km/h 78% 0.0 mm 0 W/m2
20:03 19.1 °C 15.2 °C 1023.2 hPa SE 3.5 km/h 9.7 km/h 78% 0.0 mm 0 W/m2
20:08 19.1 °C 15.2 °C 1023.2 hPa SSE 3.5 km/h 9.7 km/h 78% 0.0 mm 0 W/m2
20:13 19.1 °C 15.2 °C 1023.6 hPa SSE 2.6 km/h 9.7 km/h 78% 0.0 mm 0 W/m2
20:18 19.1 °C 15.2 °C 1023.9 hPa Calm   7.2 km/h 78% 0.0 mm 0 W/m2
20:23 19.1 °C 15.2 °C 1023.6 hPa South 1.1 km/h 6.1 km/h 78% 0.0 mm 0 W/m2
20:28 19.1 °C 15.2 °C 1023.9 hPa SSE 1.1 km/h 3.5 km/h 78% 0.0 mm 0 W/m2
20:33 19.1 °C 15.2 °C 1023.9 hPa Calm   3.5 km/h 78% 0.0 mm 0 W/m2
20:38 19.1 °C 15.2 °C 1023.9 hPa Calm   3.5 km/h 78% 0.0 mm 0 W/m2
20:43 19.0 °C 15.1 °C 1023.9 hPa South 1.1 km/h 3.5 km/h 78% 0.0 mm 0 W/m2
20:48 19.0 °C 14.9 °C 1023.9 hPa South 2.6 km/h 5.0 km/h 77% 0.0 mm 0 W/m2
20:53 19.0 °C 14.9 °C 1023.9 hPa South 2.6 km/h 5.0 km/h 77% 0.0 mm 0 W/m2
20:58 19.1 °C 15.0 °C 1023.9 hPa Calm   5.0 km/h 77% 0.0 mm 0 W/m2
21:03 19.1 °C 15.0 °C 1023.9 hPa Calm   5.0 km/h 77% 0.0 mm 0 W/m2
21:08 19.1 °C 15.0 °C 1024.3 hPa Calm   3.5 km/h 77% 0.0 mm 0 W/m2
21:13 19.1 °C 15.0 °C 1024.3 hPa Calm   3.5 km/h 77% 0.0 mm 0 W/m2
21:18 19.1 °C 15.0 °C 1024.3 hPa Calm     77% 0.0 mm 0 W/m2
21:23 19.0 °C 14.9 °C 1024.3 hPa Calm     77% 0.0 mm 0 W/m2
21:28 19.0 °C 14.9 °C 1024.3 hPa Calm     77% 0.0 mm 0 W/m2
21:33 19.0 °C 14.9 °C 1024.3 hPa SW 2.6 km/h 3.5 km/h 77% 0.0 mm 0 W/m2
21:38 19.1 °C 15.0 °C 1024.3 hPa Calm   5.0 km/h 77% 0.0 mm 0 W/m2
21:43 19.1 °C 15.0 °C 1024.3 hPa South 1.1 km/h 5.0 km/h 77% 0.0 mm 0 W/m2
21:48 19.1 °C 15.0 °C 1024.3 hPa Calm   5.0 km/h 77% 0.0 mm 0 W/m2
21:53 19.0 °C 14.9 °C 1024.3 hPa Calm   2.6 km/h 77% 0.0 mm 0 W/m2
22:11 18.9 °C 15.2 °C 1024.3 hPa North 1.1 km/h 3.5 km/h 79% 0.0 mm 0 W/m2
22:16 18.9 °C 15.8 °C 1024.3 hPa North 1.1 km/h 5.0 km/h 82% 0.0 mm 0 W/m2
22:21 18.7 °C 15.9 °C 1024.3 hPa Calm   5.0 km/h 84% 0.0 mm 0 W/m2
22:26 18.6 °C 16.1 °C 1024.3 hPa NNW 2.6 km/h 5.0 km/h 85% 0.0 mm 0 W/m2
22:31 18.5 °C 15.9 °C 1024.3 hPa Calm   5.0 km/h 85% 0.0 mm 0 W/m2
22:36 18.5 °C 15.9 °C 1024.3 hPa Calm   3.5 km/h 85% 0.0 mm 0 W/m2
22:41 18.4 °C 15.8 °C 1024.3 hPa NW 1.1 km/h 3.5 km/h 85% 0.0 mm 0 W/m2
22:46 18.3 °C 15.9 °C 1024.3 hPa NW 1.1 km/h 5.0 km/h 86% 0.0 mm 0 W/m2
22:51 18.3 °C 15.9 °C 1024.3 hPa NW 3.5 km/h 5.0 km/h 86% 0.0 mm 0 W/m2
22:56 18.2 °C 16.0 °C 1024.3 hPa NNW 2.6 km/h 7.2 km/h 87% 0.0 mm 0 W/m2
23:01 18.2 °C 16.0 °C 1024.3 hPa NNW 2.6 km/h 7.2 km/h 87% 0.0 mm 0 W/m2
23:06 18.2 °C 16.0 °C 1024.3 hPa Calm   6.1 km/h 87% 0.0 mm 0 W/m2
23:11 18.2 °C 16.0 °C 1023.9 hPa North 2.6 km/h 6.1 km/h 87% 0.0 mm 0 W/m2
23:16 18.1 °C 15.9 °C 1024.3 hPa Calm   5.0 km/h 87% 0.0 mm 0 W/m2
23:21 18.2 °C 16.0 °C 1024.3 hPa NNW 3.5 km/h 5.0 km/h 87% 0.0 mm 0 W/m2
23:26 18.2 °C 16.0 °C 1023.9 hPa NNW 2.6 km/h 5.0 km/h 87% 0.0 mm 0 W/m2
23:31 18.2 °C 16.2 °C 1023.9 hPa NNW 1.1 km/h 5.0 km/h 88% 0.0 mm 0 W/m2
23:36 18.1 °C 16.1 °C 1023.9 hPa NNW 1.1 km/h 5.0 km/h 88% 0.0 mm 0 W/m2
23:41 18.1 °C 16.1 °C 1023.9 hPa NNW 3.5 km/h 7.2 km/h 88% 0.0 mm 0 W/m2
23:46 18.1 °C 16.1 °C 1023.9 hPa NNW 2.6 km/h 7.2 km/h 88% 0.0 mm 0 W/m2
23:51 18.0 °C 16.0 °C 1023.9 hPa NNW 3.5 km/h 7.2 km/h 88% 0.0 mm 0 W/m2
23:56 18.0 °C 16.0 °C 1023.9 hPa NNW 2.6 km/h 7.2 km/h 88% 0.0 mm 0 W/m2
Northern Hawkes Bay. New Zealand Historic Data
Compliments of Weather Underground - 2.25 mb